الصفحة الرئيسية
METAR-TAF:

METAR-TAF

مطار :

Río Hato, بنما

دائرة عرض: 08-22-33N, خط طول: 080-07-40W, ارتفاع: 32 متر

METAR: مفقودة

زمن: 00:23 (05:23 UTC)

توقعات

تاريخ ووقت الإصدار 6ساعات و 23 دقيقة قبل الساعة 23:00UTC
التوقعات صالحة من21 الساعة 00 UTC إلى 22 الساعة 06 UTC
ريح 5 عقدة من الجنوب/الجنوب الشرقي
الرؤية 10 كم أو أكثر
غيوم قليلة على ارتفاع 1800 قدم
غيوم متفرقة على ارتفاع 9000 قدم
مؤقت
من 21 الساعة 03 UTC إلى 21 الساعة 07 UTC
ريح عقدة من الشمال
نظرية الاحتمالات 30% :
مؤقت
من 21 الساعة 20 UTC إلى 21 الساعة 24 UTC
الرؤية: 7000 متر
غيوم متفرقة على ارتفاع 1600 قدم, مزنة ركامية.
غيوم مفككة على ارتفاع 9000 قدم
عاصفة رعدية, مطر

TAF: MPSM 202300Z 2100/2206 16005KT 9999 FEW018 SCT090 TEMPO 2103/2107 00000KT PROB30 TEMPO 2120/2124 7000 TSRA SCT016CB BKN090

أرصاد الطقس والتوقعات من أكثر من 4000 مطار (تقارير الطقس للمطار METAR والتنبؤ بالطقس بالمطارTAF).

المحطات المتاحة هي النقط الصفراء والحمراء على الخريطة.

حرك المؤشر فوق النقطة لمعرفة اسم المحطة.

ثم انقر لمعرفة أرصاد وتوقعات الطقس.

لتغيير الخارطة: اضغط على الأزرار الخضراء مع رمز الصليب الأسود للتكبير. على الزر الأخضر مع شرطة للتصغير، أو على الأسهم الخضراء للخرائط المجاورة.


METAR-TAF: